createdAt,value
2022-10-05T00:00:06.511Z,3.03
2022-10-05T00:02:33.434Z,3.33
2022-10-05T00:05:00.474Z,3.35
2022-10-05T00:07:30.402Z,2.88
2022-10-05T00:09:59.992Z,2.90
2022-10-05T00:12:29.952Z,3.13
2022-10-05T00:15:00.897Z,2.40
2022-10-05T00:17:30.564Z,2.35
2022-10-05T00:19:57.451Z,2.85
2022-10-05T00:22:28.850Z,2.72
2022-10-05T00:25:00.190Z,3.05
2022-10-05T00:27:33.088Z,2.67
2022-10-05T00:30:03.301Z,2.70
2022-10-05T00:32:30.236Z,2.78
2022-10-05T00:34:58.044Z,2.67
2022-10-05T00:37:25.101Z,2.95
2022-10-05T00:39:52.077Z,2.75
2022-10-05T00:42:53.734Z,2.15
2022-10-05T00:45:37.904Z,2.10
2022-10-05T00:48:34.179Z,2.40
2022-10-05T00:51:23.910Z,2.45
2022-10-05T00:54:06.767Z,2.50
2022-10-05T00:56:36.430Z,2.40
2022-10-05T00:59:28.188Z,2.33
2022-10-05T01:02:01.830Z,2.30
2022-10-05T01:04:38.008Z,2.67
2022-10-05T01:07:37.203Z,2.25
2022-10-05T01:10:26.617Z,2.30
2022-10-05T01:13:14.914Z,2.60
2022-10-05T01:15:51.790Z,2.10
2022-10-05T01:18:28.118Z,2.58
2022-10-05T01:23:26.698Z,2.08
2022-10-05T01:26:09.174Z,2.05
2022-10-05T01:28:41.249Z,2.10
2022-10-05T01:31:25.726Z,2.08
2022-10-05T01:34:11.184Z,2.33
2022-10-05T01:36:51.548Z,2.13
2022-10-05T01:39:48.541Z,2.45
2022-10-05T01:42:35.469Z,2.47
2022-10-05T01:45:27.504Z,3.08
2022-10-05T01:48:27.202Z,2.47
2022-10-05T01:51:09.254Z,2.38
2022-10-05T01:54:06.699Z,2.58
2022-10-05T01:56:47.174Z,2.42
2022-10-05T01:59:31.306Z,2.47
2022-10-05T02:02:03.128Z,3.28
2022-10-05T02:05:03.933Z,2.42
2022-10-05T02:08:09.454Z,2.90
2022-10-05T02:10:44.755Z,2.58
2022-10-05T02:13:46.327Z,3.10
2022-10-05T02:16:34.366Z,2.80
2022-10-05T02:19:16.392Z,3.45
2022-10-05T02:21:46.335Z,3.10
2022-10-05T02:24:22.234Z,3.28
2022-10-05T02:26:52.342Z,3.20
2022-10-05T02:29:24.281Z,2.78
2022-10-05T02:32:14.327Z,2.60
2022-10-05T02:34:43.316Z,2.47
2022-10-05T02:37:19.174Z,2.88
2022-10-05T02:40:04.881Z,2.85
2022-10-05T02:42:48.779Z,2.50
2022-10-05T02:45:30.224Z,2.90
2022-10-05T02:48:18.425Z,2.92
2022-10-05T02:50:59.889Z,2.40
2022-10-05T02:53:32.954Z,2.53
2022-10-05T02:56:15.422Z,2.40
2022-10-05T02:59:00.163Z,3.35
2022-10-05T03:02:18.169Z,3.10
2022-10-05T03:04:51.348Z,2.63
2022-10-05T03:07:27.596Z,3.50
2022-10-05T03:10:15.485Z,3.20
2022-10-05T03:12:57.288Z,3.10
2022-10-05T03:15:36.795Z,2.97
2022-10-05T03:18:23.377Z,3.42
2022-10-05T03:21:09.875Z,3.22
2022-10-05T03:24:26.348Z,3.50
2022-10-05T03:27:28.239Z,3.30
2022-10-05T03:30:09.967Z,2.92
2022-10-05T03:33:06.088Z,3.63
2022-10-05T03:35:51.725Z,3.08
2022-10-05T03:38:36.634Z,3.13
2022-10-05T03:41:26.956Z,3.33
2022-10-05T03:44:32.117Z,3.80
2022-10-05T03:47:28.984Z,3.58
2022-10-05T03:50:04.447Z,3.15
2022-10-05T03:52:56.783Z,4.00
2022-10-05T03:55:34.519Z,3.55
2022-10-05T03:58:10.957Z,3.40
2022-10-05T04:00:40.521Z,3.38
2022-10-05T04:03:18.419Z,3.65
2022-10-05T04:05:51.301Z,3.75
2022-10-05T04:08:31.967Z,3.65
2022-10-05T04:11:06.332Z,4.10
2022-10-05T04:13:52.061Z,4.03
2022-10-05T04:16:28.090Z,4.30
2022-10-05T04:18:55.098Z,4.15
2022-10-05T04:21:27.782Z,4.60
2022-10-05T04:24:04.027Z,4.85
2022-10-05T04:27:10.725Z,4.63
2022-10-05T04:30:06.271Z,4.88
2022-10-05T04:32:51.247Z,4.30
2022-10-05T04:45:26.309Z,5.43
2022-10-05T05:41:13.486Z,8.30
2022-10-05T05:52:21.938Z,8.65
2022-10-05T06:08:57.953Z,7.68
2022-10-05T07:08:19.013Z,7.15
2022-10-05T07:28:37.689Z,6.78
2022-10-05T07:32:10.854Z,6.53
2022-10-05T07:39:21.083Z,5.60
2022-10-05T07:42:21.113Z,5.57
2022-10-05T07:45:18.188Z,5.25
2022-10-05T08:23:59.703Z,5.32
2022-10-05T08:30:14.783Z,5.65
2022-10-05T08:32:58.821Z,5.32
2022-10-05T08:35:45.115Z,5.38
2022-10-05T08:42:16.670Z,5.10
2022-10-05T08:45:36.414Z,6.45
2022-10-05T08:48:42.343Z,5.78
2022-10-05T08:51:40.238Z,6.53
2022-10-05T08:54:54.943Z,6.40
2022-10-05T08:57:34.502Z,6.03
2022-10-05T09:00:19.868Z,6.15
2022-10-05T09:03:25.473Z,5.53
2022-10-05T09:05:58.731Z,6.18
2022-10-05T09:08:54.428Z,6.00
2022-10-05T09:11:44.064Z,5.82
2022-10-05T09:15:20.572Z,5.80
2022-10-05T09:18:11.704Z,6.20
2022-10-05T09:20:59.760Z,5.55
2022-10-05T09:23:52.088Z,5.93
2022-10-05T09:26:42.335Z,6.10
2022-10-05T09:29:44.953Z,7.35
2022-10-05T09:32:54.113Z,7.03
2022-10-05T09:36:13.693Z,6.95
2022-10-05T09:39:09.839Z,7.25
2022-10-05T09:45:33.071Z,6.63
2022-10-05T09:52:03.477Z,5.97
2022-10-05T09:54:45.305Z,5.95
2022-10-05T09:57:27.396Z,5.40
2022-10-05T10:00:31.072Z,5.93
2022-10-05T10:03:08.248Z,4.93
2022-10-05T10:05:39.699Z,5.45
2022-10-05T10:08:30.765Z,4.65
2022-10-05T10:10:57.943Z,4.85
2022-10-05T10:13:31.497Z,5.25
2022-10-05T10:16:19.450Z,4.40
2022-10-05T10:19:01.187Z,4.65
2022-10-05T10:21:50.269Z,4.28
2022-10-05T10:24:53.388Z,4.85
2022-10-05T10:27:42.597Z,4.68
2022-10-05T10:30:19.497Z,4.57
2022-10-05T10:33:14.577Z,5.00
2022-10-05T10:42:13.479Z,4.60
2022-10-05T10:45:26.420Z,4.68
2022-10-05T10:48:11.448Z,4.82
2022-10-05T10:51:00.090Z,4.20
2022-10-05T10:54:16.492Z,4.03
2022-10-05T10:57:27.362Z,4.03
2022-10-05T11:00:41.513Z,4.85
2022-10-05T11:03:55.014Z,4.47
2022-10-05T11:06:59.314Z,5.05
2022-10-05T11:09:55.656Z,4.57
2022-10-05T11:13:03.470Z,6.17
2022-10-05T11:27:05.032Z,6.07
2022-10-05T11:38:36.260Z,6.70
2022-10-05T11:46:00.428Z,6.75
2022-10-05T11:49:28.132Z,7.20
2022-10-05T11:55:05.825Z,7.00
2022-10-05T11:58:03.491Z,8.45
2022-10-05T12:01:07.676Z,8.13
2022-10-05T12:08:17.258Z,7.28
2022-10-05T12:11:57.021Z,7.18
2022-10-05T12:14:38.401Z,7.85
2022-10-05T12:17:56.053Z,7.50
2022-10-05T12:20:46.992Z,8.55
2022-10-05T12:23:33.966Z,7.45
2022-10-05T12:26:17.223Z,8.13
2022-10-05T12:28:46.592Z,7.72
2022-10-05T12:31:39.726Z,7.57
2022-10-05T12:34:41.927Z,7.78
2022-10-05T12:37:32.281Z,8.10
2022-10-05T12:40:26.241Z,7.78
2022-10-05T12:43:11.495Z,8.30
2022-10-05T12:45:54.562Z,7.70
2022-10-05T12:48:49.907Z,8.35
2022-10-05T12:51:24.218Z,7.85
2022-10-05T12:54:04.643Z,8.32
2022-10-05T12:56:46.832Z,8.25
2022-10-05T12:59:33.115Z,6.93
2022-10-05T13:02:39.680Z,7.53
2022-10-05T13:05:10.166Z,7.57
2022-10-05T13:07:40.579Z,7.47
2022-10-05T13:10:25.098Z,7.00
2022-10-05T13:12:55.307Z,7.28
2022-10-05T13:15:56.758Z,7.35
2022-10-05T13:19:02.799Z,7.40
2022-10-05T13:21:59.326Z,7.70
2022-10-05T13:24:32.967Z,7.50
2022-10-05T13:27:08.582Z,7.78
2022-10-05T13:29:40.521Z,6.97
2022-10-05T13:32:17.850Z,6.65
2022-10-05T13:34:58.266Z,6.38
2022-10-05T13:37:28.807Z,6.15
2022-10-05T13:40:14.863Z,5.90
2022-10-05T13:43:06.947Z,5.93
2022-10-05T13:45:42.455Z,5.47
2022-10-05T13:48:38.852Z,6.25
2022-10-05T13:51:21.916Z,6.43
2022-10-05T13:53:59.180Z,6.68
2022-10-05T13:56:42.935Z,6.10
2022-10-05T13:59:24.038Z,6.68
2022-10-05T14:02:10.780Z,6.80
2022-10-05T14:04:58.685Z,7.32
2022-10-05T14:07:39.929Z,6.70
2022-10-05T14:10:18.649Z,6.75
2022-10-05T14:12:45.994Z,6.90
2022-10-05T14:15:22.274Z,8.43
2022-10-05T14:20:57.667Z,7.78
2022-10-05T14:23:30.050Z,6.80
2022-10-05T14:25:57.929Z,7.00
2022-10-05T14:28:34.730Z,7.15
2022-10-05T14:31:11.694Z,8.00
2022-10-05T14:33:39.062Z,6.85
2022-10-05T14:36:16.724Z,6.50
2022-10-05T14:39:13.737Z,6.75
2022-10-05T14:41:49.399Z,6.45
2022-10-05T14:44:29.552Z,6.35
2022-10-05T14:47:15.418Z,6.13
2022-10-05T14:50:11.127Z,6.35
2022-10-05T14:52:39.397Z,7.05
2022-10-05T14:55:23.934Z,5.65
2022-10-05T14:58:03.340Z,6.20
2022-10-05T15:00:38.981Z,6.43
2022-10-05T15:03:23.731Z,6.15
2022-10-05T15:06:02.512Z,6.65
2022-10-05T15:08:41.621Z,6.40
2022-10-05T15:11:32.435Z,7.18
2022-10-05T15:14:01.934Z,6.25
2022-10-05T15:16:34.837Z,7.03
2022-10-05T15:19:14.595Z,7.15
2022-10-05T15:22:22.345Z,7.70
2022-10-05T15:28:22.722Z,8.02
2022-10-05T15:31:20.558Z,9.95
2022-10-05T15:34:23.684Z,9.32
2022-10-05T15:36:59.481Z,9.43
2022-10-05T15:39:59.889Z,9.43
2022-10-05T15:42:43.187Z,9.27
2022-10-05T15:45:30.136Z,9.13
2022-10-05T15:48:00.773Z,10.02
2022-10-05T15:50:41.987Z,10.20
2022-10-05T15:53:25.477Z,9.20
2022-10-05T15:56:13.321Z,9.57
2022-10-05T15:58:53.183Z,9.38
2022-10-05T16:01:47.305Z,9.50
2022-10-05T16:04:20.426Z,8.93
2022-10-05T16:07:14.884Z,9.70
2022-10-05T16:09:59.462Z,9.48
2022-10-05T16:12:32.743Z,7.97
2022-10-05T16:15:17.172Z,9.15
2022-10-05T16:18:03.320Z,9.15
2022-10-05T16:20:57.372Z,9.77
2022-10-05T16:23:33.592Z,9.35
2022-10-05T16:26:32.854Z,9.75
2022-10-05T16:29:33.288Z,9.77
2022-10-05T16:32:19.509Z,9.75
2022-10-05T16:35:01.177Z,8.93
2022-10-05T16:37:46.480Z,9.50
2022-10-05T16:40:47.421Z,9.13
2022-10-05T16:43:32.575Z,9.18
2022-10-05T16:46:09.772Z,9.35
2022-10-05T16:48:58.318Z,9.25
2022-10-05T16:51:39.529Z,10.07
2022-10-05T16:54:19.989Z,9.50
2022-10-05T16:57:13.673Z,9.32
2022-10-05T17:00:05.205Z,9.80
2022-10-05T17:02:51.102Z,10.07
2022-10-05T17:05:30.437Z,10.20
2022-10-05T17:08:55.540Z,9.40
2022-10-05T17:11:34.648Z,9.40
2022-10-05T17:14:16.159Z,10.75
2022-10-05T17:17:01.073Z,9.52
2022-10-05T17:19:46.999Z,9.90
2022-10-05T17:22:39.958Z,10.00
2022-10-05T17:25:19.788Z,10.07
2022-10-05T17:28:39.526Z,9.35
2022-10-05T17:31:22.332Z,9.43
2022-10-05T17:34:10.843Z,9.80
2022-10-05T17:36:43.250Z,10.10
2022-10-05T17:39:22.235Z,9.55
2022-10-05T17:41:50.016Z,10.48
2022-10-05T17:44:20.573Z,9.90
2022-10-05T17:46:52.840Z,10.02
2022-10-05T17:49:38.015Z,10.75
2022-10-05T17:52:43.717Z,11.43
2022-10-05T17:55:28.386Z,11.52
2022-10-05T17:57:59.866Z,10.57
2022-10-05T18:00:32.828Z,11.93
2022-10-05T18:03:00.463Z,11.93
2022-10-05T18:05:31.491Z,11.27
2022-10-05T18:08:13.643Z,12.25
2022-10-05T18:11:09.119Z,11.98
2022-10-05T18:13:41.756Z,11.70
2022-10-05T18:16:10.739Z,12.13
2022-10-05T18:18:43.834Z,11.70
2022-10-05T18:21:13.809Z,11.13
2022-10-05T18:23:52.238Z,11.68
2022-10-05T18:26:50.637Z,10.90
2022-10-05T18:29:54.558Z,11.65
2022-10-05T18:33:08.379Z,11.15
2022-10-05T18:35:46.043Z,11.55
2022-10-05T18:38:37.840Z,10.80
2022-10-05T18:41:33.533Z,10.63
2022-10-05T18:44:34.151Z,10.77
2022-10-05T18:47:07.415Z,10.60
2022-10-05T18:49:34.862Z,10.35
2022-10-05T18:52:38.920Z,11.10
2022-10-05T18:55:26.950Z,10.68
2022-10-05T18:58:06.577Z,10.55
2022-10-05T19:01:00.489Z,10.45
2022-10-05T19:04:06.038Z,10.75
2022-10-05T19:06:54.770Z,10.07
2022-10-05T19:09:59.135Z,10.75
2022-10-05T19:12:57.287Z,10.98
2022-10-05T19:15:39.880Z,11.02
2022-10-05T19:18:10.357Z,11.60
2022-10-05T19:21:03.211Z,11.75
2022-10-05T19:23:59.954Z,11.32
2022-10-05T19:26:47.062Z,11.90
2022-10-05T19:29:34.603Z,11.98
2022-10-05T19:32:36.211Z,11.25
2022-10-05T19:35:24.794Z,11.75
2022-10-05T19:38:36.863Z,11.90
2022-10-05T19:41:12.924Z,11.85
2022-10-05T19:43:57.934Z,11.35
2022-10-05T19:46:43.258Z,12.48
2022-10-05T19:49:10.990Z,12.10
2022-10-05T19:51:50.356Z,10.35
2022-10-05T19:54:25.982Z,11.18
2022-10-05T19:56:54.751Z,12.70
2022-10-05T19:59:28.260Z,10.85
2022-10-05T20:01:57.138Z,10.95
2022-10-05T20:04:45.570Z,11.13
2022-10-05T20:07:15.993Z,11.18
2022-10-05T20:10:14.959Z,11.25
2022-10-05T20:12:51.038Z,10.13
2022-10-05T20:15:42.333Z,11.40
2022-10-05T20:18:54.762Z,10.30
2022-10-05T20:21:54.031Z,11.40
2022-10-05T20:24:26.517Z,11.30
2022-10-05T20:27:06.277Z,11.15
2022-10-05T20:29:38.532Z,11.75
2022-10-05T20:32:12.253Z,12.35
2022-10-05T20:34:42.280Z,11.63
2022-10-05T20:37:17.907Z,11.77
2022-10-05T20:39:45.181Z,11.60
2022-10-05T20:42:12.283Z,11.43
2022-10-05T20:44:40.383Z,10.85
2022-10-05T20:47:09.752Z,10.23
2022-10-05T20:49:38.428Z,10.23
2022-10-05T20:52:06.520Z,9.80
2022-10-05T20:54:33.568Z,9.55
2022-10-05T20:57:00.550Z,10.85
2022-10-05T20:59:27.759Z,10.50
2022-10-05T21:01:54.815Z,10.52
2022-10-05T21:04:23.886Z,8.65
2022-10-05T21:06:50.977Z,8.48
2022-10-05T21:09:19.795Z,9.50
2022-10-05T21:11:48.164Z,9.52
2022-10-05T21:14:15.922Z,8.77
2022-10-05T21:16:45.864Z,9.15
2022-10-05T21:19:14.316Z,8.05
2022-10-05T21:21:42.988Z,8.35
2022-10-05T21:24:13.375Z,8.30
2022-10-05T21:26:41.639Z,8.77
2022-10-05T21:29:12.538Z,8.98
2022-10-05T21:31:40.076Z,8.63
2022-10-05T21:34:07.626Z,9.07
2022-10-05T21:36:35.042Z,9.00
2022-10-05T21:39:02.069Z,9.60
2022-10-05T21:41:29.077Z,9.98
2022-10-05T21:43:56.109Z,10.65
2022-10-05T21:46:26.712Z,10.45
2022-10-05T21:48:54.648Z,10.93
2022-10-05T21:51:25.086Z,9.90
2022-10-05T21:53:55.147Z,10.68
2022-10-05T21:56:25.902Z,10.75
2022-10-05T21:58:52.991Z,11.57
2022-10-05T22:01:22.647Z,11.85
2022-10-05T22:03:50.152Z,11.30
2022-10-05T22:06:17.223Z,11.90
2022-10-05T22:08:44.281Z,12.15
2022-10-05T22:11:13.979Z,11.50
2022-10-05T22:13:47.302Z,11.90
2022-10-05T22:16:17.166Z,12.13
2022-10-05T22:18:44.541Z,11.75
2022-10-05T22:21:13.409Z,11.75
2022-10-05T22:23:41.981Z,12.60
2022-10-05T22:26:11.714Z,12.95
2022-10-05T22:28:40.421Z,12.75
2022-10-05T22:31:09.618Z,13.35
2022-10-05T22:33:37.299Z,13.68
2022-10-05T22:36:06.035Z,14.75
2022-10-05T22:38:33.024Z,13.82
2022-10-05T22:41:00.149Z,13.73
2022-10-05T22:43:27.186Z,14.52
2022-10-05T22:45:54.674Z,13.80
2022-10-05T22:48:21.719Z,14.00
2022-10-05T22:50:49.339Z,13.82
2022-10-05T22:53:16.434Z,13.73
2022-10-05T22:55:43.409Z,14.57
2022-10-05T22:58:10.315Z,15.02
2022-10-05T23:00:56.919Z,14.27
2022-10-05T23:03:24.122Z,16.10
2022-10-05T23:06:03.129Z,14.23
2022-10-05T23:08:32.478Z,15.18
2022-10-05T23:11:27.082Z,15.95
2022-10-05T23:13:58.340Z,16.10
2022-10-05T23:16:27.949Z,16.58
2022-10-05T23:18:55.188Z,15.95
2022-10-05T23:21:24.273Z,16.48
2022-10-05T23:23:51.397Z,16.33
2022-10-05T23:26:21.760Z,16.23
2022-10-05T23:28:50.113Z,15.05
2022-10-05T23:31:20.407Z,16.15
2022-10-05T23:33:47.586Z,14.40
2022-10-05T23:36:20.000Z,15.38
2022-10-05T23:38:47.425Z,15.07
2022-10-05T23:41:16.033Z,16.15
2022-10-05T23:43:43.386Z,15.05
2022-10-05T23:46:10.905Z,15.10
2022-10-05T23:48:40.539Z,15.90
2022-10-05T23:51:09.330Z,14.60
2022-10-05T23:53:36.702Z,16.88
2022-10-05T23:56:04.390Z,16.02
2022-10-05T23:58:31.773Z,14.82
